WetterOnline ( http://www.wetteronline.de )

Wetter aktuell Lieser

Aktuelles Wetter: Deuselbach (483m)

6-stündlich | Neueste Meldungen
Ortszeit Temperatur Wetter
Fr, 25.05. 20:00 21.1° C leicht bewölkt
Fr, 25.05. 14:00 20.9° C leicht bewölkt
Fr, 25.05. 8:00 13.3° C fast wolkenlos
Fr, 25.05. 2:00 13.9° C wolkenlos
Do, 24.05. 20:00 15.8° C leichter Regen
Do, 24.05. 14:00 18.0° C bewölkt
Do, 24.05. 8:00 14.8° C bewölkt
Do, 24.05. 2:00 14.0° C bedeckt
Ortszeit Temperatur Wetter
Sa, 26.05. 1:30 17.1° C wolkig
Sa, 26.05. 1:20 17.1° C wolkig
Sa, 26.05. 1:10 16.7° C wolkig
Sa, 26.05. 1:00 17.1° C wolkig
Sa, 26.05. 0:50 17.1° C wolkig
Sa, 26.05. 0:40 16.5° C wolkig
Sa, 26.05. 0:30 17.4° C wolkig
Sa, 26.05. 0:00 16.5° C wolkig
Fr, 25.05. 23:30 17.3° C wolkig
Fr, 25.05. 23:00 17.3° C wolkig
Fr, 25.05. 22:30 17.8° C wolkig
Ortszeit Relative Feuchte Sichtweite
Fr, 25.05. 20:00 61% 55 km
Fr, 25.05. 14:00 69% 28 km
Fr, 25.05. 8:00 91% 8 km
Fr, 25.05. 2:00 98% 3.8 km
Do, 24.05. 20:00 93% 6 km
Do, 24.05. 14:00 77% 18 km
Do, 24.05. 8:00 81% 15 km
Do, 24.05. 2:00 88% 18 km
Ortszeit Relative Feuchte Sichtweite
Sa, 26.05. 1:30 79% 25 km
Sa, 26.05. 1:20 79% -
Sa, 26.05. 1:10 80% -
Sa, 26.05. 1:00 77% 27 km
Sa, 26.05. 0:50 77% -
Sa, 26.05. 0:40 78% -
Sa, 26.05. 0:30 73% 40 km
Sa, 26.05. 0:00 78% 30 km
Fr, 25.05. 23:30 74% 35 km
Fr, 25.05. 23:00 75% 35 km
Fr, 25.05. 22:30 76% 30 km
Ortszeit Niederschlagsmenge Niederschlagsart
Fr, 25.05. 20:00 0.1 l/m2 in 12 Std. Regen
Fr, 25.05. 14:00 0.0 l/m2 in 6 Std. -
Fr, 25.05. 8:00 0.1 l/m2 in 12 Std. -
Fr, 25.05. 2:00 0.1 l/m2 in 6 Std. Regen
Do, 24.05. 20:00 14 l/m2 in 12 Std. Regenschauer
Do, 24.05. 14:00 0.0 l/m2 in 6 Std. -
Do, 24.05. 8:00 2 l/m2 in 12 Std. -
Do, 24.05. 2:00 2 l/m2 in 6 Std. Regen
Ortszeit Niederschlagsmenge Niederschlagsart
Sa, 26.05. 1:30 0.0 l/m2 in 1 Std. -
Sa, 26.05. 1:20 keine Meldung -
Sa, 26.05. 1:10 keine Meldung -
Sa, 26.05. 1:00 0.0 l/m2 in 1 Std. -
Sa, 26.05. 0:50 keine Meldung -
Sa, 26.05. 0:40 keine Meldung -
Sa, 26.05. 0:30 0.0 l/m2 in 1 Std. -
Sa, 26.05. 0:00 0.0 l/m2 in 1 Std. -
Fr, 25.05. 23:30 0.0 l/m2 in 1 Std. -
Fr, 25.05. 23:00 0.0 l/m2 in 1 Std. -
Fr, 25.05. 22:30 0.0 l/m2 in 1 Std. -
Ortszeit Stärke Spitze Richtung
km/h Bft. km/h Grad Sektor
Fr, 25.05. 20:00 6 1 19 130° SO
Fr, 25.05. 14:00 9 2 17 340° N
Fr, 25.05. 8:00 4 1 7 300° NW
Fr, 25.05. 2:00 0 0 14 - -
Do, 24.05. 20:00 4 1 43 70° O
Do, 24.05. 14:00 9 2 26 250° W
Do, 24.05. 8:00 7 2 22 60° NO
Do, 24.05. 2:00 11 2 32 30° NO
Ortszeit Stärke Spitze Richtung
km/h Bft. km/h Grad Sektor
Sa, 26.05. 1:30 9 2 17 60° NO
Sa, 26.05. 1:20 9 2 - 60° NO
Sa, 26.05. 1:10 11 2 - 50° NO
Sa, 26.05. 1:00 11 2 14 50° NO
Sa, 26.05. 0:50 11 2 - 50° NO
Sa, 26.05. 0:40 11 2 - 50° NO
Sa, 26.05. 0:30 4 1 11 350° N
Sa, 26.05. 0:00 7 2 13 30° NO
Fr, 25.05. 23:30 4 1 14 30° NO
Fr, 25.05. 23:00 4 1 11 40° NO
Fr, 25.05. 22:30 7 2 11 30° NO
Ortszeit Untergrenze Bedeckung Gattung
total tief tief mittel hoch
Fr, 25.05. 20:00 9000 m 8/8 0/8 - - -
Fr, 25.05. 14:00 840 m 6/8 1/8 - - -
Fr, 25.05. 8:00 <30 m 0/8 0/8 - - -
Fr, 25.05. 2:00 - 0/8 0/8 - - -
Do, 24.05. 20:00 270 m 8/8 8/8 - - -
Do, 24.05. 14:00 690 m 7/8 7/8 - - -
Do, 24.05. 8:00 3300 m 7/8 7/8 - - -
Do, 24.05. 2:00 2700 m 8/8 8/8 - - -
Ortszeit Bedeckungsgrad in Achtel und Wolkenuntergrenze
Sa, 26.05. 1:30 8(9000m)
Sa, 26.05. 1:20 8(9000m)
Sa, 26.05. 1:10 8(9000m)
Sa, 26.05. 1:00 8(9000m) 8(10500m)
Sa, 26.05. 0:50 8(9000m) 8(10500m)
Sa, 26.05. 0:40 8(9000m) 8(10500m)
Sa, 26.05. 0:30 1(8700m) 8(10500m) 8(10500m)
Sa, 26.05. 0:00 4(8700m) 7(9000m) 8(10500m)
Fr, 25.05. 23:30 7(9000m) 8(9000m) 8(10500m)
Fr, 25.05. 23:00 4(9000m) 8(9000m) 8(10500m)
Fr, 25.05. 22:30 8(9000m) 8(10500m)
Ortszeit Luftdruck NN (hPa) Tendenz (hPa in 3 Std.)
Fr, 25.05. 20:00 1017 - 0,5
Fr, 25.05. 14:00 1017 - 0,4
Fr, 25.05. 8:00 1018 + 0,8
Fr, 25.05. 2:00 1018 0,0
Do, 24.05. 20:00 1017 + 1,0
Do, 24.05. 14:00 1017 - 0,5
Do, 24.05. 8:00 1018 0,0
Do, 24.05. 2:00 1019 - 0,2
Ortszeit Luftdruck NN (hPa) Tendenz (hPa in 3 Std.)
Sa, 26.05. 1:30 1019 + 0,2
Sa, 26.05. 1:20 1019 keine Meldung
Sa, 26.05. 1:10 1019 keine Meldung
Sa, 26.05. 1:00 1018 + 0,3
Sa, 26.05. 0:50 1018 keine Meldung
Sa, 26.05. 0:40 1019 keine Meldung
Sa, 26.05. 0:30 1018 + 0,6
Sa, 26.05. 0:00 1018 + 0,3
Fr, 25.05. 23:30 1018 + 0,5
Fr, 25.05. 23:00 1018 + 0,6
Fr, 25.05. 22:30 1018 + 0,9
Ortszeit Schneehöhe (cm)
Fr, 25.05. 20:00 -
Fr, 25.05. 14:00 -
Fr, 25.05. 8:00 -
Fr, 25.05. 2:00 -
Do, 24.05. 20:00 -
Do, 24.05. 14:00 -
Do, 24.05. 8:00 -
Do, 24.05. 2:00 -
Ortszeit Schneehöhe (cm)
Sa, 26.05. 1:30 -
Sa, 26.05. 1:20 -
Sa, 26.05. 1:10 -
Sa, 26.05. 1:00 -
Sa, 26.05. 0:50 -
Sa, 26.05. 0:40 -
Sa, 26.05. 0:30 -
Sa, 26.05. 0:00 -
Fr, 25.05. 23:30 -
Fr, 25.05. 23:00 -
Fr, 25.05. 22:30 -
Link zu dieser Seite / Seite empfehlen

Das Wetter in ...